Holmesville, New York
Current Conditions -  °F | °C
As of 6:53 PM on Sunday 23 Nov 2014 (Local Time) from KBGM Reporting Station
Clear Clear  
Wind Chill: 43°   Ceiling: Unl
Heat Index: 47°   Visibility: 10mi
Dew Point: 30°   Wind: 9mph
Humidity: 52%   Direction: 160°SSE
Pressure: 29.97"   Gusts: NA
Location:  42.5358°N, 75.3475°W
Report Text: KBGM 232353Z 16008KT 10SM CLR 08/M01 A2997 RMK AO2 SLP155 60001 T00831011 10083 20061 56020
Loading
Personal Weather Stations






























Interactive Weather Map New forecast layout! Learn more

10-Day Weather Forecast

Advertisements
Track Severe Weather on mobile